Time;durP1;ratioP1;P1;durP2;ratioP2;P2;SDS_P1;SDS_P2;PMS_P1;PMS_P2;Temp;Humidity;BMP_temperature;BMP_pressure;BME280_temperature;BME280_humidity;BME280_pressure;Samples;Min_cycle;Max_cycle;Signal;HPM_P1;HPM_P2
2022/07/15 00:00:25;;;;;;;4.23;1.77;;;18.00;1.00;;;;;;5050450;28;20561;-55
2022/07/15 00:02:51;;;;;;;3.73;1.40;;;18.00;1.00;;;;;;5050719;28;20274;-57
2022/07/15 00:05:16;;;;;;;1.60;1.13;;;18.00;1.00;;;;;;5056117;28;20192;-56
2022/07/15 00:07:42;;;;;;;2.67;1.30;;;18.00;1.00;;;;;;5054301;28;20214;-56
2022/07/15 00:10:14;;;;;;;3.97;1.40;;;18.00;1.00;;;;;;5051072;28;20200;-55
2022/07/15 00:12:40;;;;;;;2.30;1.13;;;17.90;1.00;;;;;;5051348;28;20203;-55
2022/07/15 00:15:07;;;;;;;2.47;1.00;;;17.90;1.00;;;;;;5049093;28;20545;-55
2022/07/15 00:17:33;;;;;;;2.00;1.30;;;17.80;1.00;;;;;;5050052;28;20676;-55
2022/07/15 00:19:59;;;;;;;3.20;1.67;;;17.80;1.00;;;;;;5051796;28;20471;-54
2022/07/15 00:22:25;;;;;;;2.90;1.20;;;17.70;1.00;;;;;;5050485;28;20525;-55
2022/07/15 00:24:50;;;;;;;2.73;1.60;;;17.70;1.00;;;;;;5048626;28;20617;-55
2022/07/15 00:27:16;;;;;;;5.83;1.60;;;17.70;1.00;;;;;;5049892;28;20675;-55
2022/07/15 00:29:42;;;;;;;2.13;1.10;;;17.70;1.00;;;;;;5054396;28;20192;-55
2022/07/15 00:32:08;;;;;;;2.40;1.27;;;17.60;1.00;;;;;;5047898;28;20191;-56
2022/07/15 00:34:34;;;;;;;1.20;1.10;;;17.50;1.00;;;;;;5049630;28;20470;-55
2022/07/15 00:36:59;;;;;;;1.40;1.30;;;17.60;1.00;;;;;;5049582;28;20223;-55
2022/07/15 00:39:25;;;;;;;1.50;1.40;;;17.60;1.00;;;;;;5056655;28;20549;-56
2022/07/15 00:41:51;;;;;;;5.17;1.27;;;17.50;1.00;;;;;;5048057;28;20188;-56
2022/07/15 00:44:17;;;;;;;2.13;1.10;;;17.40;1.00;;;;;;5052765;28;20184;-55
2022/07/15 00:46:43;;;;;;;3.70;1.20;;;17.40;1.00;;;;;;5048396;28;20184;-55
2022/07/15 00:49:10;;;;;;;5.03;1.43;;;17.50;1.00;;;;;;5050043;28;20446;-56
2022/07/15 00:51:40;;;;;;;1.83;1.00;;;17.40;1.00;;;;;;5050558;28;20188;-55
2022/07/15 00:54:08;;;;;;;1.10;1.00;;;17.30;1.00;;;;;;5049772;28;20824;-56
2022/07/15 00:56:45;;;;;;;2.60;1.17;;;17.30;1.00;;;;;;5050241;28;20492;-55
2022/07/15 00:59:12;;;;;;;3.10;1.10;;;17.30;1.00;;;;;;5054715;28;20453;-55
2022/07/15 01:01:38;;;;;;;2.00;1.03;;;17.30;1.00;;;;;;5050655;28;20447;-55
2022/07/15 01:04:05;;;;;;;5.03;1.47;;;17.20;1.00;;;;;;5051649;28;20565;-55
2022/07/15 01:06:31;;;;;;;3.67;1.20;;;17.30;1.00;;;;;;5050552;28;20199;-56
2022/07/15 01:08:57;;;;;;;2.50;1.10;;;17.10;1.00;;;;;;5051671;28;20465;-55
2022/07/15 01:11:22;;;;;;;2.33;1.30;;;17.10;1.00;;;;;;5054869;28;20187;-55
2022/07/15 01:13:48;;;;;;;2.93;1.43;;;17.10;1.00;;;;;;5049601;28;20219;-55
2022/07/15 01:16:14;;;;;;;4.67;1.57;;;17.10;1.00;;;;;;5060770;28;20271;-55
2022/07/15 01:18:40;;;;;;;1.53;1.10;;;17.10;1.00;;;;;;5064919;28;20303;-55
2022/07/15 01:21:06;;;;;;;7.00;1.63;;;17.10;1.00;;;;;;5053805;28;20874;-55
2022/07/15 01:23:31;;;;;;;2.20;1.10;;;17.00;1.00;;;;;;5045841;28;20203;-54
2022/07/15 01:25:57;;;;;;;2.20;1.00;;;16.90;1.00;;;;;;5046722;28;20557;-55
2022/07/15 01:28:23;;;;;;;3.03;1.10;;;16.90;1.00;;;;;;5049860;28;20191;-55
2022/07/15 01:30:49;;;;;;;2.97;0.80;;;16.80;1.00;;;;;;5047665;28;20251;-56
2022/07/15 01:33:14;;;;;;;2.10;0.90;;;16.80;1.00;;;;;;5049972;28;20207;-55
2022/07/15 01:35:41;;;;;;;1.33;0.90;;;16.70;1.00;;;;;;5049824;28;20496;-55
2022/07/15 01:38:07;;;;;;;1.13;0.90;;;16.70;1.00;;;;;;5051947;28;20229;-55
2022/07/15 01:40:33;;;;;;;1.90;1.23;;;16.70;1.00;;;;;;5053253;28;20445;-55
2022/07/15 01:42:59;;;;;;;2.20;0.90;;;16.70;1.00;;;;;;5054232;28;20974;-56
2022/07/15 01:45:24;;;;;;;3.00;1.00;;;16.70;1.00;;;;;;5049191;28;20188;-55
2022/07/15 01:47:52;;;;;;;1.30;0.93;;;16.60;1.00;;;;;;5049961;28;20199;-55
2022/07/15 01:50:18;;;;;;;1.90;1.00;;;16.60;1.00;;;;;;5049413;28;20654;-55
2022/07/15 01:52:44;;;;;;;2.13;0.90;;;16.60;1.00;;;;;;5047245;28;20446;-55
2022/07/15 01:55:10;;;;;;;2.40;1.10;;;16.60;1.00;;;;;;5049988;28;20545;-56
2022/07/15 01:57:36;;;;;;;1.80;0.87;;;16.60;1.00;;;;;;5048779;28;20191;-55
2022/07/15 02:00:04;;;;;;;1.57;0.97;;;16.50;1.00;;;;;;5055740;28;20442;-55
2022/07/15 02:02:29;;;;;;;4.70;1.20;;;16.50;1.00;;;;;;5047817;28;20799;-55
2022/07/15 02:04:55;;;;;;;1.37;1.00;;;16.50;1.00;;;;;;5049101;28;20446;-55
2022/07/15 02:07:21;;;;;;;1.10;0.80;;;16.50;1.00;;;;;;5047161;28;20637;-54
2022/07/15 02:09:47;;;;;;;5.40;1.60;;;16.40;1.00;;;;;;5050975;28;20522;-55
2022/07/15 02:12:12;;;;;;;1.70;0.90;;;16.30;1.00;;;;;;5047712;28;20234;-55
2022/07/15 02:14:38;;;;;;;2.23;1.00;;;16.20;1.00;;;;;;5048473;28;20673;-56
2022/07/15 02:17:03;;;;;;;1.63;0.97;;;16.30;1.00;;;;;;5058037;28;20604;-55
2022/07/15 02:19:29;;;;;;;2.17;0.83;;;16.20;1.00;;;;;;5056677;28;20179;-55
2022/07/15 02:21:55;;;;;;;1.43;0.90;;;16.20;1.00;;;;;;5049033;28;20226;-55
2022/07/15 02:24:21;;;;;;;3.90;1.00;;;16.20;1.00;;;;;;5045800;28;20196;-55
2022/07/15 02:26:48;;;;;;;2.10;1.27;;;16.30;1.00;;;;;;5048255;28;20503;-55
2022/07/15 02:29:14;;;;;;;2.00;0.97;;;16.20;1.00;;;;;;5051346;28;20626;-55
2022/07/15 02:31:41;;;;;;;1.57;1.00;;;16.10;1.00;;;;;;5051745;28;20473;-55
2022/07/15 02:34:07;;;;;;;1.40;0.80;;;15.90;1.00;;;;;;5053702;28;21034;-55
2022/07/15 02:36:33;;;;;;;2.00;1.00;;;16.00;1.00;;;;;;5052326;28;20438;-55
2022/07/15 02:38:58;;;;;;;4.30;1.33;;;15.80;1.00;;;;;;5052414;28;21108;-55
2022/07/15 02:41:24;;;;;;;3.43;0.93;;;15.80;1.00;;;;;;5050334;28;20188;-55
2022/07/15 02:43:50;;;;;;;2.43;1.10;;;15.80;1.00;;;;;;5053256;28;20597;-54
2022/07/15 02:46:16;;;;;;;4.10;1.10;;;15.80;1.00;;;;;;5052452;28;20203;-55
2022/07/15 02:48:42;;;;;;;2.70;1.30;;;15.80;1.00;;;;;;5052540;28;20454;-56
2022/07/15 02:51:08;;;;;;;4.37;1.00;;;15.80;1.00;;;;;;5061769;28;20480;-55
2022/07/15 02:53:34;;;;;;;1.20;1.10;;;15.80;1.00;;;;;;5052934;28;20208;-55
2022/07/15 02:56:00;;;;;;;2.60;1.00;;;15.70;1.00;;;;;;5067223;28;20438;-54
2022/07/15 02:58:29;;;;;;;1.70;1.20;;;15.70;1.00;;;;;;5050294;28;20482;-55
2022/07/15 03:00:54;;;;;;;3.37;1.40;;;15.80;1.00;;;;;;5051164;28;20951;-55
2022/07/15 03:03:20;;;;;;;1.30;1.20;;;15.70;1.00;;;;;;5050822;28;20443;-55
2022/07/15 03:05:46;;;;;;;1.53;1.20;;;15.80;1.00;;;;;;5053027;28;20560;-55
2022/07/15 03:08:12;;;;;;;4.60;1.00;;;15.60;1.00;;;;;;5048339;28;20270;-56
2022/07/15 03:10:37;;;;;;;1.83;0.90;;;15.70;1.00;;;;;;5053824;28;20216;-55
2022/07/15 03:13:03;;;;;;;1.47;1.00;;;15.80;1.00;;;;;;5051283;28;20204;-55
2022/07/15 03:15:29;;;;;;;2.70;1.07;;;15.80;1.00;;;;;;5052980;28;20725;-55
2022/07/15 03:17:55;;;;;;;2.23;1.23;;;15.70;1.00;;;;;;5052539;28;20457;-55
2022/07/15 03:20:20;;;;;;;2.80;1.27;;;15.70;1.00;;;;;;5066643;28;20187;-55
2022/07/15 03:22:46;;;;;;;2.33;1.37;;;15.60;1.00;;;;;;5055251;28;20176;-55
2022/07/15 03:25:12;;;;;;;1.40;1.00;;;15.50;1.00;;;;;;5053803;28;20609;-55
2022/07/15 03:27:37;;;;;;;2.63;1.20;;;15.50;1.00;;;;;;5050577;28;20234;-55
2022/07/15 03:30:04;;;;;;;2.50;1.33;;;15.50;1.00;;;;;;5056510;28;20562;-55
2022/07/15 03:32:29;;;;;;;3.80;1.30;;;15.50;1.00;;;;;;5050965;28;20882;-55
2022/07/15 03:34:57;;;;;;;2.50;1.20;;;15.60;1.00;;;;;;5047513;28;20465;-55
2022/07/15 03:37:22;;;;;;;1.70;1.23;;;15.80;1.00;;;;;;5047554;28;20256;-55
2022/07/15 03:39:48;;;;;;;1.90;1.13;;;16.00;1.00;;;;;;5046475;28;20446;-55
2022/07/15 03:42:14;;;;;;;2.67;1.47;;;16.00;1.00;;;;;;5054002;28;20630;-55
2022/07/15 03:44:39;;;;;;;3.10;1.13;;;16.10;1.00;;;;;;5060094;28;20545;-55
2022/07/15 03:47:05;;;;;;;1.40;1.17;;;16.30;1.00;;;;;;5053256;28;20192;-55
2022/07/15 03:49:30;;;;;;;1.50;1.20;;;16.30;1.00;;;;;;5052623;28;20199;-56
2022/07/15 03:51:56;;;;;;;1.43;1.10;;;16.10;1.00;;;;;;5051937;28;20198;-55
2022/07/15 03:54:22;;;;;;;2.00;0.97;;;16.10;1.00;;;;;;5057350;28;20214;-55
2022/07/15 03:56:47;;;;;;;2.33;1.07;;;16.00;1.00;;;;;;5053033;28;20676;-55
2022/07/15 03:59:19;;;;;;;1.87;1.00;;;16.00;1.00;;;;;;5052884;28;20192;-55
2022/07/15 04:01:45;;;;;;;2.63;1.07;;;15.90;1.00;;;;;;5056067;28;20194;-55
2022/07/15 04:04:11;;;;;;;1.70;1.00;;;15.80;1.00;;;;;;5050048;28;20454;-55
2022/07/15 04:06:37;;;;;;;2.47;1.37;;;15.90;1.00;;;;;;5053833;28;20199;-56
2022/07/15 04:09:02;;;;;;;4.00;1.30;;;15.80;1.00;;;;;;5053043;28;20451;-55
2022/07/15 04:11:28;;;;;;;2.87;1.17;;;15.80;1.00;;;;;;5051357;28;20184;-55
2022/07/15 04:13:54;;;;;;;5.80;1.27;;;15.70;1.00;;;;;;5054159;28;20246;-55
2022/07/15 04:16:19;;;;;;;3.27;1.57;;;15.80;1.00;;;;;;5055623;28;20219;-55
2022/07/15 04:18:45;;;;;;;1.83;1.30;;;15.90;1.00;;;;;;5052585;28;20200;-55
2022/07/15 04:21:10;;;;;;;4.40;1.40;;;15.90;1.00;;;;;;5049857;28;20187;-55
2022/07/15 04:23:36;;;;;;;1.47;0.97;;;16.00;1.00;;;;;;5049825;28;20196;-54
2022/07/15 04:26:05;;;;;;;2.37;1.20;;;16.10;1.00;;;;;;5051143;28;22167;-55
2022/07/15 04:28:31;;;;;;;6.40;1.70;;;16.10;1.00;;;;;;5050657;28;20188;-56
2022/07/15 04:30:56;;;;;;;1.30;1.20;;;16.30;1.00;;;;;;5049817;28;20986;-55
2022/07/15 04:33:23;;;;;;;3.17;1.43;;;16.10;1.00;;;;;;5050999;28;20212;-55
2022/07/15 04:35:48;;;;;;;2.30;1.83;;;16.10;1.00;;;;;;5050529;28;20200;-56
2022/07/15 04:38:14;;;;;;;2.10;1.43;;;16.00;1.00;;;;;;5049580;28;20796;-55
2022/07/15 04:40:40;;;;;;;2.80;1.53;;;16.00;1.00;;;;;;5058105;28;20230;-55
2022/07/15 04:43:06;;;;;;;6.20;1.80;;;16.10;1.00;;;;;;5057518;28;20187;-55
2022/07/15 04:45:33;;;;;;;1.57;1.47;;;16.10;1.00;;;;;;5048025;28;20871;-55
2022/07/15 04:47:59;;;;;;;3.60;1.40;;;16.10;1.00;;;;;;5049298;28;20454;-55
2022/07/15 04:53:09;;;;;;;3.73;1.60;;;15.60;1.00;;;;;;5051753;28;20465;-55
2022/07/15 04:55:34;;;;;;;2.63;1.80;;;15.90;1.00;;;;;;5056892;28;20967;-55
2022/07/15 04:58:00;;;;;;;3.67;1.47;;;16.00;1.00;;;;;;5051832;28;20249;-55
2022/07/15 05:00:26;;;;;;;5.73;1.60;;;16.20;1.00;;;;;;5053457;28;21157;-55
2022/07/15 05:02:52;;;;;;;6.00;1.80;;;16.40;1.00;;;;;;5049911;28;20445;-56
2022/07/15 05:05:18;;;;;;;2.77;1.47;;;16.60;1.00;;;;;;5049661;28;20450;-55
2022/07/15 05:07:45;;;;;;;5.90;1.97;;;16.60;1.00;;;;;;5061953;28;20449;-56
2022/07/15 05:10:11;;;;;;;4.60;1.70;;;16.60;1.00;;;;;;5050356;28;20632;-55
2022/07/15 05:12:37;;;;;;;1.50;1.30;;;16.80;1.00;;;;;;5049790;28;20873;-55
2022/07/15 05:15:04;;;;;;;2.70;1.73;;;16.90;1.00;;;;;;5050055;28;20500;-55
2022/07/15 05:17:29;;;;;;;1.90;1.30;;;17.20;1.00;;;;;;5050156;28;20443;-56
2022/07/15 05:19:55;;;;;;;2.23;1.53;;;17.20;1.00;;;;;;5048524;28;21156;-55
2022/07/15 05:22:20;;;;;;;3.53;1.40;;;17.20;1.00;;;;;;5054241;28;20207;-55
2022/07/15 05:24:46;;;;;;;3.70;1.60;;;17.30;1.00;;;;;;5047294;28;20223;-55
2022/07/15 05:27:12;;;;;;;4.33;2.10;;;17.10;1.00;;;;;;5053680;28;20199;-60
2022/07/15 05:29:38;;;;;;;2.20;1.27;;;17.20;1.00;;;;;;5049433;28;20578;-59
2022/07/15 05:32:04;;;;;;;3.93;1.50;;;17.10;1.00;;;;;;5048633;28;20669;-60
2022/07/15 05:34:29;;;;;;;2.90;1.40;;;16.80;1.00;;;;;;5049761;28;20211;-60
2022/07/15 05:36:55;;;;;;;1.77;1.60;;;17.20;1.00;;;;;;5049648;28;20442;-60
2022/07/15 05:39:20;;;;;;;2.33;1.43;;;17.20;1.00;;;;;;5049472;28;20651;-60
2022/07/15 05:41:46;;;;;;;4.43;1.70;;;17.30;1.00;;;;;;5049564;28;20200;-60
2022/07/15 05:44:12;;;;;;;2.70;1.70;;;17.30;1.00;;;;;;5049317;28;20200;-60
2022/07/15 05:46:37;;;;;;;7.20;1.70;;;17.00;1.00;;;;;;5048856;28;20192;-59
2022/07/15 05:49:03;;;;;;;3.50;1.70;;;17.30;1.00;;;;;;5049591;28;20278;-60
2022/07/15 05:51:28;;;;;;;2.67;1.30;;;17.70;1.00;;;;;;5049948;28;20407;-61
2022/07/15 05:53:54;;;;;;;3.10;1.63;;;17.80;1.00;;;;;;5047973;28;20212;-60
2022/07/15 05:56:20;;;;;;;5.27;1.40;;;17.80;1.00;;;;;;5048837;28;20187;-60
2022/07/15 05:58:46;;;;;;;2.63;1.30;;;17.90;1.00;;;;;;5049536;28;20297;-60
2022/07/15 06:01:11;;;;;;;5.40;1.50;;;17.90;1.00;;;;;;5049291;28;20294;-61
2022/07/15 06:03:37;;;;;;;3.20;1.93;;;17.90;1.00;;;;;;5048451;28;20258;-62
2022/07/15 06:06:06;;;;;;;6.17;1.70;;;17.90;1.00;;;;;;5048718;28;20269;-61
2022/07/15 06:08:32;;;;;;;3.43;1.53;;;17.90;1.00;;;;;;5048793;28;20605;-62
2022/07/15 06:10:58;;;;;;;2.97;1.60;;;18.00;1.00;;;;;;5049328;28;20816;-61
2022/07/15 06:13:23;;;;;;;3.33;2.17;;;18.10;1.00;;;;;;5047309;28;20618;-61
2022/07/15 06:15:49;;;;;;;3.00;1.37;;;18.10;1.00;;;;;;5048697;28;20793;-61
2022/07/15 06:18:16;;;;;;;6.37;1.40;;;18.00;1.00;;;;;;5049463;28;20278;-62
2022/07/15 06:20:41;;;;;;;4.40;2.23;;;18.20;1.00;;;;;;5048501;28;20191;-60
2022/07/15 06:23:07;;;;;;;2.53;1.43;;;18.60;1.00;;;;;;5048105;28;20913;-60
2022/07/15 06:25:33;;;;;;;3.20;1.50;;;18.90;1.00;;;;;;5048691;28;20231;-62
2022/07/15 06:27:58;;;;;;;2.27;1.50;;;18.70;1.00;;;;;;5048382;28;20203;-60
2022/07/15 06:30:24;;;;;;;3.67;2.10;;;18.80;1.00;;;;;;5048553;28;20235;-61
2022/07/15 06:32:49;;;;;;;4.30;1.50;;;18.70;1.00;;;;;;5048699;28;20897;-61
2022/07/15 06:35:15;;;;;;;3.90;2.03;;;18.80;1.00;;;;;;5049001;28;20184;-60
2022/07/15 06:37:40;;;;;;;4.47;1.60;;;18.90;1.00;;;;;;5049071;28;20249;-61
2022/07/15 06:40:07;;;;;;;3.17;1.90;;;18.90;1.00;;;;;;5048972;28;20226;-61
2022/07/15 06:42:33;;;;;;;3.03;1.90;;;19.00;1.00;;;;;;5048947;28;20200;-61
2022/07/15 06:44:58;;;;;;;5.47;1.50;;;19.10;1.00;;;;;;5048894;28;21402;-60
2022/07/15 06:47:24;;;;;;;4.60;1.30;;;19.10;1.00;;;;;;5048160;28;20528;-61
2022/07/15 06:49:50;;;;;;;3.40;1.37;;;19.00;1.00;;;;;;5047226;28;20188;-61
2022/07/15 06:52:17;;;;;;;5.17;1.67;;;19.00;1.00;;;;;;5048977;28;20204;-60
2022/07/15 06:54:42;;;;;;;5.27;1.70;;;19.00;1.00;;;;;;5049297;28;20478;-59
2022/07/15 06:57:08;;;;;;;9.30;1.90;;;19.10;1.00;;;;;;5049097;28;20962;-59
2022/07/15 06:59:34;;;;;;;4.20;1.53;;;19.30;1.00;;;;;;5047043;28;20200;-59
2022/07/15 07:02:00;;;;;;;10.30;2.07;;;18.90;1.00;;;;;;5048129;28;20523;-59
2022/07/15 07:04:26;;;;;;;4.70;1.50;;;18.80;1.00;;;;;;5048163;28;20454;-59
2022/07/15 07:06:52;;;;;;;6.50;1.90;;;18.70;1.00;;;;;;5048902;28;20439;-60
2022/07/15 07:09:17;;;;;;;3.23;1.50;;;18.70;1.00;;;;;;5048460;28;20270;-58
2022/07/15 07:11:43;;;;;;;1.90;1.33;;;18.60;1.00;;;;;;5049130;28;20184;-60
2022/07/15 07:14:08;;;;;;;5.10;1.27;;;18.80;1.00;;;;;;5048381;28;20207;-60
2022/07/15 07:16:34;;;;;;;4.47;1.13;;;19.00;1.00;;;;;;5052301;28;20184;-60
2022/07/15 07:19:00;;;;;;;2.80;1.17;;;18.80;1.00;;;;;;5052605;28;20203;-60
2022/07/15 07:21:26;;;;;;;3.80;1.47;;;18.90;1.00;;;;;;5051456;28;20188;-60
2022/07/15 07:23:52;;;;;;;1.43;1.10;;;19.10;1.00;;;;;;5052857;28;20480;-59
2022/07/15 07:26:17;;;;;;;4.97;1.50;;;18.90;1.00;;;;;;5052613;28;20196;-59
2022/07/15 07:28:45;;;;;;;10.40;1.97;;;19.10;1.00;;;;;;5051810;28;20275;-60
2022/07/15 07:31:13;;;;;;;4.87;1.60;;;19.30;1.00;;;;;;5052053;28;20253;-60
2022/07/15 07:33:39;;;;;;;2.00;1.20;;;19.50;1.00;;;;;;5051748;28;20808;-60
2022/07/15 07:36:06;;;;;;;3.87;1.23;;;19.90;1.00;;;;;;5049982;28;20470;-60
2022/07/15 07:38:33;;;;;;;6.10;1.23;;;20.10;1.00;;;;;;5052305;28;20481;-60
2022/07/15 07:40:58;;;;;;;3.17;1.60;;;20.00;1.00;;;;;;5051226;28;20519;-60
2022/07/15 07:43:24;;;;;;;5.47;1.53;;;19.90;1.00;;;;;;5051640;28;20442;-60
2022/07/15 07:45:50;;;;;;;5.43;1.40;;;19.70;1.00;;;;;;5053766;28;20502;-60
2022/07/15 07:48:16;;;;;;;2.10;1.23;;;19.70;1.00;;;;;;5052145;28;20435;-61
2022/07/15 07:50:43;;;;;;;3.07;1.50;;;19.70;1.00;;;;;;5051496;28;20827;-61
2022/07/15 07:53:09;;;;;;;3.50;1.40;;;19.60;1.00;;;;;;5052346;28;20470;-60
2022/07/15 07:55:35;;;;;;;3.30;1.40;;;19.70;1.00;;;;;;5051902;28;20442;-60
2022/07/15 07:58:01;;;;;;;4.13;1.47;;;19.80;1.00;;;;;;5052132;28;20792;-60
2022/07/15 08:00:28;;;;;;;2.50;1.33;;;20.10;1.00;;;;;;5051451;28;20431;-60
2022/07/15 08:02:55;;;;;;;5.20;1.70;;;20.10;1.00;;;;;;5051638;28;20541;-60
2022/07/15 08:05:22;;;;;;;2.83;1.53;;;;;;;;;;5050918;28;20447;-60
2022/07/15 08:07:48;;;;;;;3.77;1.00;;;20.70;1.00;;;;;;5051868;28;20990;-60
2022/07/15 08:10:14;;;;;;;4.80;1.70;;;20.50;1.00;;;;;;5050450;28;20466;-60
2022/07/15 08:12:40;;;;;;;4.43;1.40;;;20.40;1.00;;;;;;5051538;28;20447;-61
2022/07/15 08:15:10;;;;;;;3.30;1.20;;;20.60;1.00;;;;;;5050913;28;20470;-60
2022/07/15 08:17:37;;;;;;;2.30;1.00;;;20.60;1.00;;;;;;5051084;28;20451;-60
2022/07/15 08:20:07;;;;;;;2.60;1.33;;;20.70;1.00;;;;;;5051096;28;20573;-59
2022/07/15 08:22:33;;;;;;;2.80;1.50;;;21.00;1.00;;;;;;5050917;28;21032;-59
2022/07/15 08:24:59;;;;;;;3.13;1.17;;;20.90;1.00;;;;;;5054365;28;20856;-59
2022/07/15 08:27:24;;;;;;;2.73;1.20;;;20.90;1.00;;;;;;5050418;28;20438;-59
2022/07/15 08:29:50;;;;;;;4.97;1.43;;;22.10;1.00;;;;;;5051280;28;20222;-59
2022/07/15 08:32:16;;;;;;;3.90;1.27;;;20.60;1.00;;;;;;5051402;28;20264;-59
2022/07/15 08:34:41;;;;;;;2.40;0.90;;;20.50;1.00;;;;;;5051492;28;20247;-58
2022/07/15 08:37:09;;;;;;;3.27;0.93;;;20.90;1.00;;;;;;5051313;28;20597;-59
2022/07/15 08:39:36;;;;;;;7.13;1.43;;;20.90;1.00;;;;;;5050330;28;20188;-60
2022/07/15 08:42:03;;;;;;;3.63;1.00;;;21.00;1.00;;;;;;5050815;28;20442;-59
2022/07/15 08:44:30;;;;;;;2.60;0.93;;;21.30;1.00;;;;;;5051186;28;21019;-59
2022/07/15 08:47:05;;;;;;;4.40;1.80;;;21.30;1.00;;;;;;5048926;28;20568;-60
2022/07/15 08:49:32;;;;;;;1.53;1.10;;;21.70;1.00;;;;;;5051025;28;20442;-59
2022/07/15 08:52:00;;;;;;;1.50;0.80;;;21.80;1.00;;;;;;5049959;28;20796;-60
2022/07/15 08:54:27;;;;;;;2.03;1.20;;;21.50;1.00;;;;;;5050935;28;20458;-59
2022/07/15 08:56:53;;;;;;;3.10;1.10;;;21.20;1.00;;;;;;5051192;28;20516;-58
2022/07/15 08:59:18;;;;;;;2.93;1.23;;;21.40;1.00;;;;;;5050839;28;20443;-58
2022/07/15 09:01:46;;;;;;;5.00;1.27;;;21.70;1.00;;;;;;5050373;28;20184;-58
2022/07/15 09:04:13;;;;;;;6.97;2.07;;;21.70;1.00;;;;;;5050433;28;20188;-58
2022/07/15 09:06:47;;;;;;;4.63;1.70;;;21.40;1.00;;;;;;5050210;28;20449;-58
2022/07/15 09:09:26;;;;;;;2.37;1.33;;;21.20;1.00;;;;;;5050447;28;20547;-59
2022/07/15 09:12:09;;;;;;;4.00;1.20;;;20.90;1.00;;;;;;5050608;28;20434;-58
2022/07/15 09:14:38;;;;;;;3.07;1.20;;;21.30;1.00;;;;;;5050454;28;20470;-58
2022/07/15 09:17:10;;;;;;;6.70;1.10;;;21.70;1.00;;;;;;5048479;28;20454;-58
2022/07/15 09:20:09;;;;;;;3.20;1.30;;;21.70;1.00;;;;;;5049790;28;20446;-58
2022/07/15 09:22:58;;;;;;;5.00;1.40;;;21.30;1.00;;;;;;5049626;28;20449;-58
2022/07/15 09:25:24;;;;;;;2.83;1.23;;;21.30;1.00;;;;;;5049086;28;20481;-58
2022/07/15 09:27:50;;;;;;;3.80;1.50;;;21.40;1.00;;;;;;5048482;28;20796;-60
2022/07/15 09:33:34;;;;;;;4.37;1.70;;;21.40;1.00;;;;;;5069894;28;20468;-57
2022/07/15 09:36:20;;;;;;;4.90;1.30;;;21.30;1.00;;;;;;5049861;28;20910;-57
2022/07/15 09:38:53;;;;;;;5.40;1.53;;;21.20;1.00;;;;;;5049372;28;20434;-58
2022/07/15 09:41:35;;;;;;;2.20;1.00;;;21.10;1.00;;;;;;5049763;28;20851;-59
2022/07/15 09:44:07;;;;;;;4.60;1.53;;;21.40;1.00;;;;;;5049752;28;20495;-58
2022/07/15 09:47:03;;;;;;;3.70;1.73;;;21.40;1.00;;;;;;5049345;28;20553;-58
2022/07/15 09:49:29;;;;;;;6.20;2.13;;;21.60;1.00;;;;;;5048996;28;20486;-58
2022/07/15 09:52:07;;;;;;;5.70;1.63;;;21.70;1.00;;;;;;5049081;28;20966;-58
2022/07/15 09:54:35;;;;;;;6.50;1.50;;;21.70;1.00;;;;;;5049604;28;20493;-57
2022/07/15 09:57:04;;;;;;;3.00;1.20;;;21.60;1.00;;;;;;5048090;28;20439;-58
2022/07/15 09:59:30;;;;;;;2.27;1.00;;;21.20;1.00;;;;;;5049679;28;21045;-59
2022/07/15 10:01:57;;;;;;;3.90;1.67;;;21.20;1.00;;;;;;5048537;28;20542;-58
2022/07/15 10:04:26;;;;;;;3.00;1.33;;;21.80;1.00;;;;;;5048965;28;20461;-58
2022/07/15 10:06:54;;;;;;;2.50;1.10;;;21.80;1.00;;;;;;5049191;28;21024;-59
2022/07/15 10:09:25;;;;;;;4.33;1.30;;;22.10;1.00;;;;;;5049449;28;20450;-58
2022/07/15 10:11:55;;;;;;;2.97;1.30;;;22.10;1.00;;;;;;5048078;28;20454;-57
2022/07/15 10:14:39;;;;;;;3.97;1.40;;;21.90;1.00;;;;;;5051367;28;20474;-58
2022/07/15 10:17:35;;;;;;;1.80;0.93;;;21.70;1.00;;;;;;5066975;28;20871;-58
2022/07/15 10:20:17;;;;;;;3.70;1.40;;;21.60;1.00;;;;;;5047544;28;20511;-57
2022/07/15 10:23:07;;;;;;;3.83;1.50;;;21.80;1.00;;;;;;5067403;28;20830;-58
2022/07/15 10:25:32;;;;;;;4.13;1.57;;;21.80;1.00;;;;;;5049295;28;20441;-57
2022/07/15 10:28:04;;;;;;;3.10;1.50;;;21.80;1.00;;;;;;5048264;28;20816;-57
2022/07/15 10:30:30;;;;;;;8.00;1.73;;;21.90;1.00;;;;;;5048581;28;20212;-58
2022/07/15 10:33:07;;;;;;;7.47;1.30;;;21.80;1.00;;;;;;5049505;28;20930;-57
2022/07/15 10:35:33;;;;;;;4.07;1.30;;;21.50;1.00;;;;;;5048890;28;20292;-56
2022/07/15 10:38:21;;;;;;;2.53;1.30;;;21.50;1.00;;;;;;5049251;28;20426;-57
2022/07/15 10:41:08;;;;;;;3.83;1.20;;;22.00;1.00;;;;;;5048453;28;20447;-57
2022/07/15 10:43:45;;;;;;;3.57;1.40;;;21.90;1.00;;;;;;5048474;28;20555;-56
2022/07/15 10:46:17;;;;;;;3.73;1.23;;;21.80;1.00;;;;;;5048165;28;20491;-57
2022/07/15 10:49:12;;;;;;;4.63;1.80;;;21.80;1.00;;;;;;5049293;28;20997;-58
2022/07/15 10:51:38;;;;;;;4.63;1.43;;;22.10;1.00;;;;;;5052070;28;20458;-57
2022/07/15 10:54:04;;;;;;;3.20;1.20;;;22.00;1.00;;;;;;5052862;28;20859;-57
2022/07/15 10:56:31;;;;;;;2.90;1.60;;;21.90;1.00;;;;;;5052807;28;20188;-57
2022/07/15 10:59:16;;;;;;;3.70;1.10;;;21.80;1.00;;;;;;5052734;28;20469;-57
2022/07/15 11:01:44;;;;;;;2.10;1.37;;;21.90;1.00;;;;;;5052173;28;20446;-57
2022/07/15 11:04:17;;;;;;;2.97;1.47;;;22.10;1.00;;;;;;5053102;28;20474;-57
2022/07/15 11:07:01;;;;;;;3.20;1.20;;;22.50;1.00;;;;;;5052757;28;20450;-56
2022/07/15 11:09:51;;;;;;;3.80;1.10;;;22.40;1.00;;;;;;5053323;28;20430;-58
2022/07/15 11:12:32;;;;;;;1.97;1.13;;;22.30;1.00;;;;;;5052915;28;20458;-57
2022/07/15 11:15:04;;;;;;;2.90;1.13;;;22.10;1.00;;;;;;5050910;28;20504;-57
2022/07/15 11:17:29;;;;;;;4.27;1.40;;;22.20;1.00;;;;;;5051907;28;20442;-57
2022/07/15 11:19:57;;;;;;;3.73;1.57;;;22.00;1.00;;;;;;5052395;28;20446;-56
2022/07/15 11:22:26;;;;;;;6.80;1.17;;;22.10;1.00;;;;;;5052801;28;20180;-58
2022/07/15 11:24:53;;;;;;;3.17;1.57;;;22.10;1.00;;;;;;5051551;28;20476;-58
2022/07/15 11:27:23;;;;;;;2.10;1.07;;;22.20;1.00;;;;;;5051874;28;20466;-57
2022/07/15 11:29:52;;;;;;;2.10;0.90;;;22.30;1.00;;;;;;5051682;28;20903;-58
2022/07/15 11:32:21;;;;;;;2.73;1.07;;;22.40;1.00;;;;;;5052331;28;20449;-57
2022/07/15 11:34:53;;;;;;;4.43;1.30;;;22.60;1.00;;;;;;5051913;28;20561;-57
2022/07/15 11:37:25;;;;;;;3.00;1.50;;;22.70;1.00;;;;;;5050060;28;20443;-57
2022/07/15 11:40:06;;;;;;;3.00;1.30;;;22.90;1.00;;;;;;5058456;28;20437;-57
2022/07/15 11:45:33;;;;;;;4.20;1.17;;;22.80;1.00;;;;;;5050583;28;20441;-57
2022/07/15 11:47:58;;;;;;;2.43;0.70;;;23.30;1.00;;;;;;5061828;28;20433;-57
2022/07/15 11:50:24;;;;;;;3.67;1.20;;;23.90;1.00;;;;;;5060075;28;20517;-59
2022/07/15 11:52:55;;;;;;;2.50;1.23;;;24.30;1.00;;;;;;5067231;28;20176;-57
2022/07/15 11:55:22;;;;;;;3.80;1.40;;;23.90;1.00;;;;;;5051805;28;20835;-57
2022/07/15 11:57:47;;;;;;;4.00;1.23;;;22.90;1.00;;;;;;5052104;28;21005;-57
2022/07/15 12:00:14;;;;;;;3.37;1.20;;;22.70;1.00;;;;;;5057029;28;20461;-57
2022/07/15 12:02:39;;;;;;;4.67;1.40;;;22.80;1.00;;;;;;5058191;28;20176;-57
2022/07/15 12:05:07;;;;;;;3.93;1.40;;;23.10;1.00;;;;;;5050599;28;20442;-57
2022/07/15 12:07:44;;;;;;;3.07;1.13;;;23.10;1.00;;;;;;5051498;28;20223;-57
2022/07/15 12:10:11;;;;;;;2.83;1.30;;;23.10;1.00;;;;;;5050383;28;20442;-57
2022/07/15 12:12:41;;;;;;;3.80;0.90;;;23.30;1.00;;;;;;5050800;28;20451;-57
2022/07/15 12:15:08;;;;;;;4.70;1.83;;;23.50;1.00;;;;;;5059765;28;20478;-58
2022/07/15 12:17:33;;;;;;;2.60;1.10;;;23.30;1.00;;;;;;5071812;28;20467;-56
2022/07/15 12:20:02;;;;;;;3.93;1.23;;;23.40;1.00;;;;;;5071926;28;21156;-58
2022/07/15 12:22:28;;;;;;;2.97;1.03;;;23.50;1.00;;;;;;5071816;28;20186;-57
2022/07/15 12:24:54;;;;;;;2.03;1.13;;;22.90;1.00;;;;;;5071932;28;21008;-58
2022/07/15 12:27:32;;;;;;;1.73;0.90;;;23.10;1.00;;;;;;5065429;28;20537;-57
2022/07/15 12:30:03;;;;;;;1.10;0.73;;;23.20;1.00;;;;;;5051384;28;20226;-57
2022/07/15 12:32:28;;;;;;;3.33;1.33;;;23.10;1.00;;;;;;5051699;28;20951;-57
2022/07/15 12:34:57;;;;;;;2.83;1.37;;;23.30;1.00;;;;;;5051648;28;20478;-58
2022/07/15 12:37:35;;;;;;;3.20;1.23;;;23.40;1.00;;;;;;5060026;28;20664;-57
2022/07/15 12:40:04;;;;;;;3.57;1.33;;;23.40;1.00;;;;;;5071090;28;20520;-57
2022/07/15 12:42:47;;;;;;;2.93;0.97;;;23.30;1.00;;;;;;5049103;28;20967;-57
2022/07/15 12:45:13;;;;;;;4.90;1.20;;;23.60;1.00;;;;;;5049203;28;20454;-58
2022/07/15 12:47:58;;;;;;;1.80;1.30;;;23.90;1.00;;;;;;5051302;28;20592;-57
2022/07/15 12:50:24;;;;;;;3.30;1.10;;;24.40;1.00;;;;;;5051252;28;20183;-58
2022/07/15 12:52:49;;;;;;;4.77;1.23;;;24.20;1.00;;;;;;5050261;28;20496;-56
2022/07/15 12:55:21;;;;;;;4.93;1.33;;;23.70;1.00;;;;;;5051107;28;20481;-58
2022/07/15 12:57:47;;;;;;;4.00;1.20;;;23.60;1.00;;;;;;5051050;28;20184;-58
2022/07/15 13:00:22;;;;;;;3.63;1.30;;;23.50;1.00;;;;;;5051142;28;20799;-57
2022/07/15 13:03:03;;;;;;;3.13;1.03;;;23.70;1.00;;;;;;5050598;28;20442;-57
2022/07/15 13:05:39;;;;;;;3.33;1.30;;;23.70;1.00;;;;;;5049694;28;20545;-58
2022/07/15 13:08:15;;;;;;;3.00;1.63;;;23.70;1.00;;;;;;5051158;28;20860;-57
2022/07/15 13:10:43;;;;;;;3.30;1.33;;;24.10;1.00;;;;;;5050694;28;20931;-57